Terminal Aerodrome Forecast
Issued by NWS

Home | Current Version | Previous Version | Text Only | Print | Product List | Glossary On
Versions: 1 2 3 4 5 6 7 8 9 10 11 12 13 14 15 16 17 18
000
FTUS41 KCAR 291120
TAFPQI
TAF
KPQI 291120Z 2912/3012 00000KT P6SM SKC
     FM292200 17004KT P6SM SCT150 BKN250
     FM300500 15005KT P6SM BKN100 OVC170
     FM301000 13006KT P6SM SCT030 OVC050
      AMD LTD TO CLD VIS AND WIND=

USA.gov is the U.S. government's official web portal to all federal, state and local government web resources and services.